sensor_id;sensor_type;location;lat;lon;timestamp;temperature;humidity
22469;DHT22;11401;50.792;4.352;2023-09-07T01:26:29;23.40;66.80
22469;DHT22;11401;50.792;4.352;2023-09-07T01:28:58;23.40;67.00
22469;DHT22;11401;50.792;4.352;2023-09-07T01:31:25;23.40;66.90
22469;DHT22;11401;50.792;4.352;2023-09-07T01:33:52;23.40;66.70
22469;DHT22;11401;50.792;4.352;2023-09-07T01:36:19;23.40;66.70
22469;DHT22;11401;50.792;4.352;2023-09-07T01:38:46;23.40;66.50
22469;DHT22;11401;50.792;4.352;2023-09-07T01:41:13;23.40;66.50
22469;DHT22;11401;50.792;4.352;2023-09-07T01:43:40;23.40;66.40
22469;DHT22;11401;50.792;4.352;2023-09-07T01:46:07;23.40;66.40
22469;DHT22;11401;50.792;4.352;2023-09-07T01:48:34;23.40;66.30
22469;DHT22;11401;50.792;4.352;2023-09-07T01:51:02;23.40;66.20
22469;DHT22;11401;50.792;4.352;2023-09-07T01:53:31;23.40;66.20
22469;DHT22;11401;50.792;4.352;2023-09-07T01:55:59;23.30;66.10
22469;DHT22;11401;50.792;4.352;2023-09-07T01:58:26;23.40;66.20
22469;DHT22;11401;50.792;4.352;2023-09-07T02:00:57;23.30;66.10
22469;DHT22;11401;50.792;4.352;2023-09-07T02:03:25;23.40;66.10
22469;DHT22;11401;50.792;4.352;2023-09-07T02:05:53;23.30;66.00
22469;DHT22;11401;50.792;4.352;2023-09-07T02:08:21;23.30;66.00
22469;DHT22;11401;50.792;4.352;2023-09-07T02:10:48;23.30;65.80
22469;DHT22;11401;50.792;4.352;2023-09-07T02:13:15;23.30;65.90
22469;DHT22;11401;50.792;4.352;2023-09-07T02:15:42;23.30;65.80
22469;DHT22;11401;50.792;4.352;2023-09-07T02:18:10;23.30;65.80
22469;DHT22;11401;50.792;4.352;2023-09-07T02:20:37;23.30;65.90
22469;DHT22;11401;50.792;4.352;2023-09-07T02:23:05;23.30;65.80
22469;DHT22;11401;50.792;4.352;2023-09-07T02:25:32;23.20;65.60
22469;DHT22;11401;50.792;4.352;2023-09-07T02:28:01;23.20;65.70
22469;DHT22;11401;50.792;4.352;2023-09-07T02:30:28;23.20;65.50
22469;DHT22;11401;50.792;4.352;2023-09-07T02:32:55;23.30;65.50
22469;DHT22;11401;50.792;4.352;2023-09-07T02:35:23;23.20;65.60
22469;DHT22;11401;50.792;4.352;2023-09-07T02:37:51;23.20;65.50
22469;DHT22;11401;50.792;4.352;2023-09-07T02:40:18;23.20;65.40
22469;DHT22;11401;50.792;4.352;2023-09-07T02:42:45;23.20;65.40
22469;DHT22;11401;50.792;4.352;2023-09-07T02:45:14;23.20;65.30
22469;DHT22;11401;50.792;4.352;2023-09-07T02:47:41;23.20;65.30
22469;DHT22;11401;50.792;4.352;2023-09-07T02:50:09;23.20;65.30
22469;DHT22;11401;50.792;4.352;2023-09-07T02:52:36;23.20;65.30
22469;DHT22;11401;50.792;4.352;2023-09-07T02:55:03;23.20;65.20
22469;DHT22;11401;50.792;4.352;2023-09-07T02:57:31;23.20;65.20
22469;DHT22;11401;50.792;4.352;2023-09-07T02:59:58;23.20;65.20
22469;DHT22;11401;50.792;4.352;2023-09-07T03:02:25;23.20;65.10
22469;DHT22;11401;50.792;4.352;2023-09-07T03:04:55;23.10;65.00
22469;DHT22;11401;50.792;4.352;2023-09-07T03:07:25;23.10;65.00
22469;DHT22;11401;50.792;4.352;2023-09-07T03:09:53;23.10;65.10
22469;DHT22;11401;50.792;4.352;2023-09-07T03:12:20;23.10;65.00
22469;DHT22;11401;50.792;4.352;2023-09-07T03:14:47;23.10;65.00
22469;DHT22;11401;50.792;4.352;2023-09-07T03:17:16;23.10;65.00
22469;DHT22;11401;50.792;4.352;2023-09-07T03:19:43;23.10;64.90
22469;DHT22;11401;50.792;4.352;2023-09-07T03:22:11;23.10;64.80
22469;DHT22;11401;50.792;4.352;2023-09-07T03:24:38;23.10;64.80
22469;DHT22;11401;50.792;4.352;2023-09-07T03:27:05;23.10;64.60
22469;DHT22;11401;50.792;4.352;2023-09-07T03:29:32;23.00;64.70
22469;DHT22;11401;50.792;4.352;2023-09-07T03:32:03;23.10;64.70
22469;DHT22;11401;50.792;4.352;2023-09-07T03:34:31;23.10;64.60
22469;DHT22;11401;50.792;4.352;2023-09-07T03:36:58;23.00;64.50
22469;DHT22;11401;50.792;4.352;2023-09-07T03:39:25;23.00;64.50
22469;DHT22;11401;50.792;4.352;2023-09-07T03:41:52;23.00;64.40
22469;DHT22;11401;50.792;4.352;2023-09-07T03:44:22;23.00;64.50
22469;DHT22;11401;50.792;4.352;2023-09-07T03:46:49;23.00;64.40
22469;DHT22;11401;50.792;4.352;2023-09-07T03:49:16;23.00;64.20
22469;DHT22;11401;50.792;4.352;2023-09-07T03:51:44;22.90;64.30
22469;DHT22;11401;50.792;4.352;2023-09-07T03:54:11;23.00;64.30
22469;DHT22;11401;50.792;4.352;2023-09-07T03:56:38;23.00;64.40
22469;DHT22;11401;50.792;4.352;2023-09-07T03:59:08;23.00;64.40
22469;DHT22;11401;50.792;4.352;2023-09-07T04:01:35;23.00;64.30
22469;DHT22;11401;50.792;4.352;2023-09-07T04:04:02;23.00;64.30
22469;DHT22;11401;50.792;4.352;2023-09-07T04:06:29;23.00;64.20
22469;DHT22;11401;50.792;4.352;2023-09-07T04:08:56;22.90;64.90
22469;DHT22;11401;50.792;4.352;2023-09-07T04:11:24;23.00;64.40
22469;DHT22;11401;50.792;4.352;2023-09-07T04:13:51;22.90;64.40
22469;DHT22;11401;50.792;4.352;2023-09-07T04:16:17;22.90;64.20
22469;DHT22;11401;50.792;4.352;2023-09-07T04:18:45;22.90;64.20
22469;DHT22;11401;50.792;4.352;2023-09-07T04:21:12;22.90;64.20
22469;DHT22;11401;50.792;4.352;2023-09-07T04:23:40;22.90;64.20
22469;DHT22;11401;50.792;4.352;2023-09-07T04:26:09;22.90;64.20
22469;DHT22;11401;50.792;4.352;2023-09-07T04:28:37;22.90;64.20
22469;DHT22;11401;50.792;4.352;2023-09-07T04:31:06;22.90;64.20
22469;DHT22;11401;50.792;4.352;2023-09-07T04:33:33;22.90;64.10
22469;DHT22;11401;50.792;4.352;2023-09-07T04:36:11;22.90;64.10
22469;DHT22;11401;50.792;4.352;2023-09-07T04:38:41;22.90;64.00
22469;DHT22;11401;50.792;4.352;2023-09-07T04:41:10;22.80;64.10
22469;DHT22;11401;50.792;4.352;2023-09-07T04:43:38;22.80;64.90
22469;DHT22;11401;50.792;4.352;2023-09-07T04:46:13;22.80;64.10
22469;DHT22;11401;50.792;4.352;2023-09-07T04:48:41;22.80;64.00
22469;DHT22;11401;50.792;4.352;2023-09-07T04:51:09;22.80;64.00
22469;DHT22;11401;50.792;4.352;2023-09-07T04:53:39;22.80;64.00
22469;DHT22;11401;50.792;4.352;2023-09-07T04:56:08;22.80;63.90
22469;DHT22;11401;50.792;4.352;2023-09-07T04:58:36;22.70;63.80
22469;DHT22;11401;50.792;4.352;2023-09-07T05:01:05;22.50;64.20
22469;DHT22;11401;50.792;4.352;2023-09-07T05:03:33;22.50;64.50
22469;DHT22;11401;50.792;4.352;2023-09-07T05:06:01;22.50;64.50
22469;DHT22;11401;50.792;4.352;2023-09-07T05:08:30;22.50;64.40
22469;DHT22;11401;50.792;4.352;2023-09-07T05:10:59;22.40;64.30
22469;DHT22;11401;50.792;4.352;2023-09-07T05:13:27;22.50;64.50
22469;DHT22;11401;50.792;4.352;2023-09-07T05:15:57;22.50;64.40
22469;DHT22;11401;50.792;4.352;2023-09-07T05:18:25;22.50;64.40
22469;DHT22;11401;50.792;4.352;2023-09-07T05:20:52;22.50;64.30
22469;DHT22;11401;50.792;4.352;2023-09-07T05:23:21;22.50;64.30
22469;DHT22;11401;50.792;4.352;2023-09-07T05:25:52;22.50;64.40
22469;DHT22;11401;50.792;4.352;2023-09-07T05:28:22;22.50;64.50
22469;DHT22;11401;50.792;4.352;2023-09-07T05:30:52;22.40;64.60
22469;DHT22;11401;50.792;4.352;2023-09-07T05:33:21;22.40;64.80
22469;DHT22;11401;50.792;4.352;2023-09-07T05:35:49;22.40;64.80
22469;DHT22;11401;50.792;4.352;2023-09-07T05:38:16;22.40;65.10
22469;DHT22;11401;50.792;4.352;2023-09-07T05:40:44;22.40;64.80
22469;DHT22;11401;50.792;4.352;2023-09-07T05:43:12;22.40;64.90
22469;DHT22;11401;50.792;4.352;2023-09-07T05:45:40;22.40;65.00
22469;DHT22;11401;50.792;4.352;2023-09-07T05:48:10;22.40;64.90
22469;DHT22;11401;50.792;4.352;2023-09-07T05:50:38;22.40;64.80
22469;DHT22;11401;50.792;4.352;2023-09-07T05:53:06;22.50;64.80
22469;DHT22;11401;50.792;4.352;2023-09-07T05:55:34;22.50;64.60
22469;DHT22;11401;50.792;4.352;2023-09-07T05:58:07;22.50;64.30
22469;DHT22;11401;50.792;4.352;2023-09-07T06:00:38;22.50;64.50
22469;DHT22;11401;50.792;4.352;2023-09-07T06:03:07;22.50;64.70
22469;DHT22;11401;50.792;4.352;2023-09-07T06:05:35;22.60;64.70
22469;DHT22;11401;50.792;4.352;2023-09-07T06:08:05;22.60;64.80
22469;DHT22;11401;50.792;4.352;2023-09-07T06:10:35;22.60;65.00
22469;DHT22;11401;50.792;4.352;2023-09-07T06:13:04;22.60;65.00
22469;DHT22;11401;50.792;4.352;2023-09-07T06:15:31;22.60;65.00
22469;DHT22;11401;50.792;4.352;2023-09-07T06:17:59;22.60;65.10
22469;DHT22;11401;50.792;4.352;2023-09-07T06:20:26;22.60;65.40
22469;DHT22;11401;50.792;4.352;2023-09-07T06:22:56;22.60;65.40
22469;DHT22;11401;50.792;4.352;2023-09-07T06:25:23;22.60;65.30
22469;DHT22;11401;50.792;4.352;2023-09-07T06:27:51;22.70;65.20
22469;DHT22;11401;50.792;4.352;2023-09-07T06:30:18;22.70;65.30
22469;DHT22;11401;50.792;4.352;2023-09-07T06:32:47;22.70;65.30
22469;DHT22;11401;50.792;4.352;2023-09-07T06:35:16;22.80;65.50
22469;DHT22;11401;50.792;4.352;2023-09-07T06:37:44;22.80;65.50
22469;DHT22;11401;50.792;4.352;2023-09-07T06:40:15;22.80;65.50
22469;DHT22;11401;50.792;4.352;2023-09-07T06:42:46;22.90;65.30
22469;DHT22;11401;50.792;4.352;2023-09-07T06:45:16;22.80;64.90
22469;DHT22;11401;50.792;4.352;2023-09-07T06:47:43;22.90;65.00
22469;DHT22;11401;50.792;4.352;2023-09-07T06:50:11;22.90;64.80
22469;DHT22;11401;50.792;4.352;2023-09-07T06:52:38;22.90;65.00
22469;DHT22;11401;50.792;4.352;2023-09-07T06:55:06;23.00;64.80
22469;DHT22;11401;50.792;4.352;2023-09-07T06:57:34;23.00;64.80
22469;DHT22;11401;50.792;4.352;2023-09-07T07:00:03;23.10;64.70
22469;DHT22;11401;50.792;4.352;2023-09-07T07:02:34;23.10;64.70
22469;DHT22;11401;50.792;4.352;2023-09-07T07:05:02;23.10;64.60
22469;DHT22;11401;50.792;4.352;2023-09-07T07:07:30;23.10;64.60
22469;DHT22;11401;50.792;4.352;2023-09-07T07:09:58;23.20;64.70
22469;DHT22;11401;50.792;4.352;2023-09-07T07:12:25;23.20;64.60
22469;DHT22;11401;50.792;4.352;2023-09-07T07:14:53;23.20;64.40
22469;DHT22;11401;50.792;4.352;2023-09-07T07:17:20;23.20;64.30
22469;DHT22;11401;50.792;4.352;2023-09-07T07:19:49;23.20;64.40
22469;DHT22;11401;50.792;4.352;2023-09-07T07:22:16;23.30;64.50
22469;DHT22;11401;50.792;4.352;2023-09-07T07:24:48;23.30;64.60
22469;DHT22;11401;50.792;4.352;2023-09-07T07:27:16;23.30;64.40
22469;DHT22;11401;50.792;4.352;2023-09-07T07:29:43;23.30;64.40
22469;DHT22;11401;50.792;4.352;2023-09-07T07:32:12;23.30;64.50
22469;DHT22;11401;50.792;4.352;2023-09-07T07:34:39;23.30;64.50
22469;DHT22;11401;50.792;4.352;2023-09-07T07:37:06;23.40;64.30
22469;DHT22;11401;50.792;4.352;2023-09-07T07:39:33;23.40;64.60
22469;DHT22;11401;50.792;4.352;2023-09-07T07:42:01;23.40;64.50
22469;DHT22;11401;50.792;4.352;2023-09-07T07:44:30;23.40;64.50
22469;DHT22;11401;50.792;4.352;2023-09-07T07:46:57;23.40;64.50
22469;DHT22;11401;50.792;4.352;2023-09-07T07:49:24;23.50;64.90
22469;DHT22;11401;50.792;4.352;2023-09-07T07:51:51;23.50;65.00
22469;DHT22;11401;50.792;4.352;2023-09-07T07:54:22;23.50;64.70
22469;DHT22;11401;50.792;4.352;2023-09-07T07:56:52;23.50;64.60
22469;DHT22;11401;50.792;4.352;2023-09-07T07:59:19;23.50;64.90
22469;DHT22;11401;50.792;4.352;2023-09-07T08:01:46;23.60;64.90
22469;DHT22;11401;50.792;4.352;2023-09-07T08:04:14;23.60;64.90
22469;DHT22;11401;50.792;4.352;2023-09-07T08:06:41;23.60;65.10
22469;DHT22;11401;50.792;4.352;2023-09-07T08:09:08;23.60;65.40
22469;DHT22;11401;50.792;4.352;2023-09-07T08:11:37;23.70;65.50
22469;DHT22;11401;50.792;4.352;2023-09-07T08:14:06;23.70;65.50
22469;DHT22;11401;50.792;4.352;2023-09-07T08:16:33;23.70;65.40
22469;DHT22;11401;50.792;4.352;2023-09-07T08:19:01;23.70;65.40
22469;DHT22;11401;50.792;4.352;2023-09-07T08:21:28;23.80;65.60
22469;DHT22;11401;50.792;4.352;2023-09-07T08:23:56;23.80;65.50
22469;DHT22;11401;50.792;4.352;2023-09-07T08:26:23;23.80;65.60
22469;DHT22;11401;50.792;4.352;2023-09-07T08:28:50;23.80;65.50
22469;DHT22;11401;50.792;4.352;2023-09-07T08:31:17;23.90;65.30
22469;DHT22;11401;50.792;4.352;2023-09-07T08:33:49;23.90;65.40
22469;DHT22;11401;50.792;4.352;2023-09-07T08:36:21;23.90;65.40
22469;DHT22;11401;50.792;4.352;2023-09-07T08:38:51;24.00;66.20
22469;DHT22;11401;50.792;4.352;2023-09-07T08:41:21;24.00;65.50
22469;DHT22;11401;50.792;4.352;2023-09-07T08:43:53;24.00;65.60
22469;DHT22;11401;50.792;4.352;2023-09-07T08:46:22;24.00;65.70
22469;DHT22;11401;50.792;4.352;2023-09-07T08:48:50;24.00;65.70
22469;DHT22;11401;50.792;4.352;2023-09-07T08:51:19;24.00;65.60
22469;DHT22;11401;50.792;4.352;2023-09-07T08:53:46;24.00;65.70
22469;DHT22;11401;50.792;4.352;2023-09-07T08:56:16;24.00;65.70
22469;DHT22;11401;50.792;4.352;2023-09-07T08:58:43;24.00;65.80
22469;DHT22;11401;50.792;4.352;2023-09-07T09:01:19;24.00;65.90
22469;DHT22;11401;50.792;4.352;2023-09-07T09:03:49;24.10;66.10
22469;DHT22;11401;50.792;4.352;2023-09-07T09:06:19;24.00;65.80
22469;DHT22;11401;50.792;4.352;2023-09-07T09:08:51;24.00;65.80
22469;DHT22;11401;50.792;4.352;2023-09-07T09:11:22;24.10;65.80
22469;DHT22;11401;50.792;4.352;2023-09-07T09:13:51;24.00;65.80
22469;DHT22;11401;50.792;4.352;2023-09-07T09:16:20;24.10;66.00
22469;DHT22;11401;50.792;4.352;2023-09-07T09:18:51;24.00;66.10
22469;DHT22;11401;50.792;4.352;2023-09-07T09:21:20;24.00;66.10
22469;DHT22;11401;50.792;4.352;2023-09-07T09:23:49;24.00;66.20
22469;DHT22;11401;50.792;4.352;2023-09-07T09:26:17;24.00;66.10
22469;DHT22;11401;50.792;4.352;2023-09-07T09:28:44;24.00;66.20
22469;DHT22;11401;50.792;4.352;2023-09-07T09:31:12;24.10;66.30
22469;DHT22;11401;50.792;4.352;2023-09-07T09:33:42;24.10;66.20
22469;DHT22;11401;50.792;4.352;2023-09-07T09:36:09;24.10;66.10
22469;DHT22;11401;50.792;4.352;2023-09-07T09:38:36;24.10;65.90
22469;DHT22;11401;50.792;4.352;2023-09-07T09:41:04;24.10;65.90
22469;DHT22;11401;50.792;4.352;2023-09-07T09:43:31;24.10;65.90
22469;DHT22;11401;50.792;4.352;2023-09-07T09:46:00;24.10;66.00
22469;DHT22;11401;50.792;4.352;2023-09-07T09:48:27;24.10;66.00
22469;DHT22;11401;50.792;4.352;2023-09-07T09:50:56;24.10;66.00
22469;DHT22;11401;50.792;4.352;2023-09-07T09:53:24;24.10;65.60
22469;DHT22;11401;50.792;4.352;2023-09-07T09:55:54;24.10;65.60
22469;DHT22;11401;50.792;4.352;2023-09-07T09:58:21;24.10;65.40
22469;DHT22;11401;50.792;4.352;2023-09-07T10:00:51;24.10;65.50
22469;DHT22;11401;50.792;4.352;2023-09-07T10:03:29;24.20;65.70
22469;DHT22;11401;50.792;4.352;2023-09-07T10:06:18;24.20;65.70
22469;DHT22;11401;50.792;4.352;2023-09-07T10:08:54;24.20;65.70
22469;DHT22;11401;50.792;4.352;2023-09-07T10:11:32;24.20;65.80
22469;DHT22;11401;50.792;4.352;2023-09-07T10:14:01;24.20;65.60
22469;DHT22;11401;50.792;4.352;2023-09-07T10:16:50;24.20;65.80
22469;DHT22;11401;50.792;4.352;2023-09-07T10:19:24;24.20;65.70
22469;DHT22;11401;50.792;4.352;2023-09-07T10:21:53;24.20;65.80
22469;DHT22;11401;50.792;4.352;2023-09-07T10:24:31;24.20;65.80
22469;DHT22;11401;50.792;4.352;2023-09-07T10:27:04;24.20;65.70
22469;DHT22;11401;50.792;4.352;2023-09-07T10:29:45;24.20;65.80
22469;DHT22;11401;50.792;4.352;2023-09-07T10:32:21;24.20;65.80
22469;DHT22;11401;50.792;4.352;2023-09-07T10:34:49;24.20;66.10
22469;DHT22;11401;50.792;4.352;2023-09-07T10:37:16;24.20;66.10
22469;DHT22;11401;50.792;4.352;2023-09-07T10:39:44;24.20;66.10
22469;DHT22;11401;50.792;4.352;2023-09-07T10:42:22;24.20;66.00
22469;DHT22;11401;50.792;4.352;2023-09-07T10:44:51;24.20;66.00
22469;DHT22;11401;50.792;4.352;2023-09-07T10:47:18;24.20;66.10
22469;DHT22;11401;50.792;4.352;2023-09-07T10:49:46;24.20;66.10
22469;DHT22;11401;50.792;4.352;2023-09-07T10:52:13;24.20;66.20
22469;DHT22;11401;50.792;4.352;2023-09-07T10:54:40;24.10;66.10
22469;DHT22;11401;50.792;4.352;2023-09-07T10:57:11;24.20;66.00
22469;DHT22;11401;50.792;4.352;2023-09-07T10:59:46;24.20;66.00
22469;DHT22;11401;50.792;4.352;2023-09-07T11:02:15;24.30;66.00
22469;DHT22;11401;50.792;4.352;2023-09-07T11:04:43;24.20;66.00
22469;DHT22;11401;50.792;4.352;2023-09-07T11:07:11;24.20;66.10
22469;DHT22;11401;50.792;4.352;2023-09-07T11:09:42;24.20;66.10
22469;DHT22;11401;50.792;4.352;2023-09-07T11:12:13;24.20;66.10
22469;DHT22;11401;50.792;4.352;2023-09-07T11:14:42;24.20;66.20
22469;DHT22;11401;50.792;4.352;2023-09-07T11:17:10;24.20;66.10
22469;DHT22;11401;50.792;4.352;2023-09-07T11:19:37;24.20;66.10
22469;DHT22;11401;50.792;4.352;2023-09-07T11:22:04;24.20;66.10
22469;DHT22;11401;50.792;4.352;2023-09-07T11:24:35;24.20;66.20
22469;DHT22;11401;50.792;4.352;2023-09-07T11:27:03;24.20;66.10
22469;DHT22;11401;50.792;4.352;2023-09-07T11:29:32;24.10;66.20
22469;DHT22;11401;50.792;4.352;2023-09-07T11:32:09;24.10;66.30
22469;DHT22;11401;50.792;4.352;2023-09-07T11:34:53;24.10;66.30
22469;DHT22;11401;50.792;4.352;2023-09-07T11:37:25;24.20;66.30
22469;DHT22;11401;50.792;4.352;2023-09-07T11:39:53;24.10;66.40
22469;DHT22;11401;50.792;4.352;2023-09-07T11:42:20;24.10;66.40
22469;DHT22;11401;50.792;4.352;2023-09-07T11:44:47;24.10;66.20
22469;DHT22;11401;50.792;4.352;2023-09-07T11:47:14;24.10;66.40
22469;DHT22;11401;50.792;4.352;2023-09-07T11:49:41;24.10;66.40
22469;DHT22;11401;50.792;4.352;2023-09-07T11:52:08;24.10;66.50
22469;DHT22;11401;50.792;4.352;2023-09-07T11:54:36;24.10;66.50
22469;DHT22;11401;50.792;4.352;2023-09-07T11:57:04;24.10;66.50
22469;DHT22;11401;50.792;4.352;2023-09-07T11:59:31;24.10;66.50
22469;DHT22;11401;50.792;4.352;2023-09-07T12:02:14;24.10;66.40
22469;DHT22;11401;50.792;4.352;2023-09-07T12:04:42;24.20;66.50
22469;DHT22;11401;50.792;4.352;2023-09-07T12:07:09;24.10;66.50
22469;DHT22;11401;50.792;4.352;2023-09-07T12:09:37;24.10;66.50
22469;DHT22;11401;50.792;4.352;2023-09-07T12:12:04;24.10;66.50
22469;DHT22;11401;50.792;4.352;2023-09-07T12:14:31;24.10;66.50
22469;DHT22;11401;50.792;4.352;2023-09-07T12:16:58;24.10;66.50
22469;DHT22;11401;50.792;4.352;2023-09-07T12:19:27;24.10;66.50
22469;DHT22;11401;50.792;4.352;2023-09-07T12:21:54;24.10;66.40
22469;DHT22;11401;50.792;4.352;2023-09-07T12:24:22;24.10;66.40
22469;DHT22;11401;50.792;4.352;2023-09-07T12:26:49;24.20;66.40
22469;DHT22;11401;50.792;4.352;2023-09-07T12:29:16;24.10;66.40
22469;DHT22;11401;50.792;4.352;2023-09-07T12:31:43;24.10;66.30
22469;DHT22;11401;50.792;4.352;2023-09-07T12:34:10;24.10;66.40
22469;DHT22;11401;50.792;4.352;2023-09-07T12:36:37;24.10;66.50
22469;DHT22;11401;50.792;4.352;2023-09-07T12:39:05;24.20;66.50
22469;DHT22;11401;50.792;4.352;2023-09-07T12:41:32;24.10;66.50
22469;DHT22;11401;50.792;4.352;2023-09-07T12:43:59;24.10;66.50
22469;DHT22;11401;50.792;4.352;2023-09-07T12:46:26;24.10;66.50
22469;DHT22;11401;50.792;4.352;2023-09-07T12:48:54;24.10;66.40
22469;DHT22;11401;50.792;4.352;2023-09-07T12:51:20;24.20;66.40
22469;DHT22;11401;50.792;4.352;2023-09-07T12:53:48;24.20;66.40
22469;DHT22;11401;50.792;4.352;2023-09-07T12:56:15;24.10;66.30
22469;DHT22;11401;50.792;4.352;2023-09-07T12:58:42;24.20;66.40
22469;DHT22;11401;50.792;4.352;2023-09-07T13:01:09;24.20;66.40
22469;DHT22;11401;50.792;4.352;2023-09-07T13:03:38;24.10;66.40
22469;DHT22;11401;50.792;4.352;2023-09-07T13:06:05;24.10;66.50
22469;DHT22;11401;50.792;4.352;2023-09-07T13:08:32;24.10;66.60
22469;DHT22;11401;50.792;4.352;2023-09-07T13:11:02;24.10;66.60
22469;DHT22;11401;50.792;4.352;2023-09-07T13:13:29;24.10;66.70
22469;DHT22;11401;50.792;4.352;2023-09-07T13:15:57;24.10;66.70
22469;DHT22;11401;50.792;4.352;2023-09-07T13:18:25;24.10;66.70
22469;DHT22;11401;50.792;4.352;2023-09-07T13:20:52;24.10;66.40
22469;DHT22;11401;50.792;4.352;2023-09-07T13:23:26;24.10;66.60
22469;DHT22;11401;50.792;4.352;2023-09-07T13:25:57;24.10;66.60
22469;DHT22;11401;50.792;4.352;2023-09-07T13:28:24;24.10;66.50
22469;DHT22;11401;50.792;4.352;2023-09-07T13:30:51;24.10;66.70
22469;DHT22;11401;50.792;4.352;2023-09-07T13:33:18;24.10;66.60
22469;DHT22;11401;50.792;4.352;2023-09-07T13:35:45;24.10;66.70
22469;DHT22;11401;50.792;4.352;2023-09-07T13:38:12;24.10;66.70
22469;DHT22;11401;50.792;4.352;2023-09-07T13:40:40;24.20;66.70
22469;DHT22;11401;50.792;4.352;2023-09-07T13:43:07;24.10;66.60
22469;DHT22;11401;50.792;4.352;2023-09-07T13:45:34;24.10;66.60
22469;DHT22;11401;50.792;4.352;2023-09-07T13:48:01;24.10;66.60
22469;DHT22;11401;50.792;4.352;2023-09-07T13:50:29;24.10;66.70
22469;DHT22;11401;50.792;4.352;2023-09-07T13:52:56;24.10;66.70
22469;DHT22;11401;50.792;4.352;2023-09-07T13:55:23;24.10;66.80
22469;DHT22;11401;50.792;4.352;2023-09-07T13:57:52;24.10;66.80
22469;DHT22;11401;50.792;4.352;2023-09-07T14:00:19;24.10;66.80
22469;DHT22;11401;50.792;4.352;2023-09-07T14:02:46;24.10;66.70
22469;DHT22;11401;50.792;4.352;2023-09-07T14:05:13;24.10;66.70
22469;DHT22;11401;50.792;4.352;2023-09-07T14:07:40;24.10;66.80
22469;DHT22;11401;50.792;4.352;2023-09-07T14:10:07;24.10;66.80
22469;DHT22;11401;50.792;4.352;2023-09-07T14:12:34;24.10;66.70
22469;DHT22;11401;50.792;4.352;2023-09-07T14:15:01;24.20;66.80
22469;DHT22;11401;50.792;4.352;2023-09-07T14:17:28;24.10;66.90
22469;DHT22;11401;50.792;4.352;2023-09-07T14:19:55;24.10;66.90
22469;DHT22;11401;50.792;4.352;2023-09-07T14:22:23;24.10;66.90
22469;DHT22;11401;50.792;4.352;2023-09-07T14:24:49;24.10;66.90
22469;DHT22;11401;50.792;4.352;2023-09-07T14:27:17;24.10;66.90
22469;DHT22;11401;50.792;4.352;2023-09-07T14:29:44;24.10;66.90
22469;DHT22;11401;50.792;4.352;2023-09-07T14:32:11;24.10;66.80
22469;DHT22;11401;50.792;4.352;2023-09-07T14:34:38;24.10;66.90
22469;DHT22;11401;50.792;4.352;2023-09-07T14:37:05;24.10;66.90
22469;DHT22;11401;50.792;4.352;2023-09-07T14:39:32;24.10;66.80
22469;DHT22;11401;50.792;4.352;2023-09-07T14:41:59;24.10;66.90
22469;DHT22;11401;50.792;4.352;2023-09-07T14:44:28;24.10;66.90
22469;DHT22;11401;50.792;4.352;2023-09-07T14:46:55;24.10;66.80
22469;DHT22;11401;50.792;4.352;2023-09-07T14:49:22;24.10;66.90
22469;DHT22;11401;50.792;4.352;2023-09-07T14:51:49;24.10;66.80
22469;DHT22;11401;50.792;4.352;2023-09-07T14:54:16;24.10;66.90
22469;DHT22;11401;50.792;4.352;2023-09-07T14:56:44;24.10;66.90
22469;DHT22;11401;50.792;4.352;2023-09-07T14:59:11;24.10;66.90
22469;DHT22;11401;50.792;4.352;2023-09-07T15:01:38;24.10;66.90
22469;DHT22;11401;50.792;4.352;2023-09-07T15:04:06;24.10;66.90
22469;DHT22;11401;50.792;4.352;2023-09-07T15:06:33;24.10;66.90
22469;DHT22;11401;50.792;4.352;2023-09-07T15:09:00;24.10;67.30
22469;DHT22;11401;50.792;4.352;2023-09-07T15:11:27;24.10;66.90
22469;DHT22;11401;50.792;4.352;2023-09-07T15:13:54;24.10;66.90
22469;DHT22;11401;50.792;4.352;2023-09-07T15:16:22;24.10;66.90
22469;DHT22;11401;50.792;4.352;2023-09-07T15:18:52;24.10;67.00
22469;DHT22;11401;50.792;4.352;2023-09-07T15:21:20;24.10;66.90
22469;DHT22;11401;50.792;4.352;2023-09-07T15:23:47;24.10;66.90
22469;DHT22;11401;50.792;4.352;2023-09-07T15:26:15;24.10;66.90
22469;DHT22;11401;50.792;4.352;2023-09-07T15:28:42;24.10;66.90
22469;DHT22;11401;50.792;4.352;2023-09-07T15:31:09;24.10;66.90
22469;DHT22;11401;50.792;4.352;2023-09-07T15:33:36;24.10;66.90
22469;DHT22;11401;50.792;4.352;2023-09-07T15:36:03;24.10;66.90
22469;DHT22;11401;50.792;4.352;2023-09-07T15:38:30;24.10;66.90
22469;DHT22;11401;50.792;4.352;2023-09-07T15:40:58;24.10;66.90
22469;DHT22;11401;50.792;4.352;2023-09-07T15:43:25;24.10;66.90
22469;DHT22;11401;50.792;4.352;2023-09-07T15:45:52;24.10;66.90
22469;DHT22;11401;50.792;4.352;2023-09-07T15:48:19;24.10;67.00
22469;DHT22;11401;50.792;4.352;2023-09-07T15:50:47;24.10;67.00
22469;DHT22;11401;50.792;4.352;2023-09-07T15:53:14;24.10;67.00
22469;DHT22;11401;50.792;4.352;2023-09-07T15:55:42;24.10;67.00
22469;DHT22;11401;50.792;4.352;2023-09-07T15:58:10;24.10;67.00
22469;DHT22;11401;50.792;4.352;2023-09-07T16:00:37;24.10;67.00
22469;DHT22;11401;50.792;4.352;2023-09-07T16:03:04;24.10;67.00
22469;DHT22;11401;50.792;4.352;2023-09-07T16:05:32;24.10;67.00
22469;DHT22;11401;50.792;4.352;2023-09-07T16:07:59;24.10;67.00
22469;DHT22;11401;50.792;4.352;2023-09-07T16:10:27;24.10;67.10
22469;DHT22;11401;50.792;4.352;2023-09-07T16:12:54;24.10;67.10
22469;DHT22;11401;50.792;4.352;2023-09-07T16:15:22;24.10;67.10
22469;DHT22;11401;50.792;4.352;2023-09-07T16:17:49;24.10;67.10
22469;DHT22;11401;50.792;4.352;2023-09-07T16:20:16;24.10;67.10
22469;DHT22;11401;50.792;4.352;2023-09-07T16:22:43;24.20;67.30
22469;DHT22;11401;50.792;4.352;2023-09-07T16:25:10;24.20;67.20
22469;DHT22;11401;50.792;4.352;2023-09-07T16:27:37;24.10;67.10
22469;DHT22;11401;50.792;4.352;2023-09-07T16:30:08;24.10;67.10
22469;DHT22;11401;50.792;4.352;2023-09-07T16:32:35;24.20;67.20
22469;DHT22;11401;50.792;4.352;2023-09-07T16:35:05;24.20;67.20
22469;DHT22;11401;50.792;4.352;2023-09-07T16:37:32;24.10;67.10
22469;DHT22;11401;50.792;4.352;2023-09-07T16:39:59;24.20;67.20
22469;DHT22;11401;50.792;4.352;2023-09-07T16:42:26;24.20;67.20
22469;DHT22;11401;50.792;4.352;2023-09-07T16:44:54;24.20;67.10
22469;DHT22;11401;50.792;4.352;2023-09-07T16:47:21;24.20;67.10
22469;DHT22;11401;50.792;4.352;2023-09-07T16:49:48;24.20;68.40
22469;DHT22;11401;50.792;4.352;2023-09-07T16:52:15;24.10;67.90
22469;DHT22;11401;50.792;4.352;2023-09-07T16:54:42;24.20;68.40
22469;DHT22;11401;50.792;4.352;2023-09-07T16:57:10;24.20;69.00
22469;DHT22;11401;50.792;4.352;2023-09-07T16:59:37;24.30;69.00
22469;DHT22;11401;50.792;4.352;2023-09-07T17:02:23;24.40;69.00